sensor_id;sensor_type;location;lat;lon;timestamp;pressure;altitude;pressure_sealevel;temperature;humidity
78488;BME280;67885;49.758;9.582;2023-10-08T00:00:24;99865.00;;;21.72;45.21
78488;BME280;67885;49.758;9.582;2023-10-08T00:03:09;99867.88;;;21.70;44.81
78488;BME280;67885;49.758;9.582;2023-10-08T00:05:36;99854.63;;;21.61;44.64
78488;BME280;67885;49.758;9.582;2023-10-08T00:08:04;99859.31;;;21.67;45.03
78488;BME280;67885;49.758;9.582;2023-10-08T00:10:35;99844.41;;;21.48;44.96
78488;BME280;67885;49.758;9.582;2023-10-08T00:13:04;99859.50;;;21.65;45.60
78488;BME280;67885;49.758;9.582;2023-10-08T00:15:33;99865.91;;;21.64;45.73
78488;BME280;67885;49.758;9.582;2023-10-08T00:18:02;99858.34;;;21.60;45.78
78488;BME280;67885;49.758;9.582;2023-10-08T00:20:32;99871.28;;;21.64;45.29
78488;BME280;67885;49.758;9.582;2023-10-08T00:23:09;99871.66;;;21.61;45.76
78488;BME280;67885;49.758;9.582;2023-10-08T00:25:36;99847.94;;;21.48;45.40
78488;BME280;67885;49.758;9.582;2023-10-08T00:28:07;99858.50;;;21.58;46.07
78488;BME280;67885;49.758;9.582;2023-10-08T00:30:38;99860.38;;;21.58;45.52
78488;BME280;67885;49.758;9.582;2023-10-08T00:33:05;99864.09;;;21.56;45.54
78488;BME280;67885;49.758;9.582;2023-10-08T00:35:37;99862.56;;;21.54;45.10
78488;BME280;67885;49.758;9.582;2023-10-08T00:38:04;99858.03;;;21.54;45.35
78488;BME280;67885;49.758;9.582;2023-10-08T00:40:38;99858.03;;;21.54;45.43
78488;BME280;67885;49.758;9.582;2023-10-08T00:43:06;99858.22;;;21.53;45.53
78488;BME280;67885;49.758;9.582;2023-10-08T00:45:35;99846.56;;;21.52;46.23
78488;BME280;67885;49.758;9.582;2023-10-08T00:48:08;99841.03;;;21.46;46.10
78488;BME280;67885;49.758;9.582;2023-10-08T00:50:35;99845.91;;;21.50;45.72
78488;BME280;67885;49.758;9.582;2023-10-08T00:53:09;99848.78;;;21.49;45.42
78488;BME280;67885;49.758;9.582;2023-10-08T00:55:43;99849.97;;;21.46;45.70
78488;BME280;67885;49.758;9.582;2023-10-08T00:58:19;99856.56;;;21.44;45.65
78488;BME280;67885;49.758;9.582;2023-10-08T01:00:50;99851.53;;;21.41;46.14
78488;BME280;67885;49.758;9.582;2023-10-08T01:03:25;99851.69;;;21.39;46.10
78488;BME280;67885;49.758;9.582;2023-10-08T01:05:53;99831.22;;;21.30;46.73
78488;BME280;67885;49.758;9.582;2023-10-08T01:08:20;99852.72;;;21.38;46.37
78488;BME280;67885;49.758;9.582;2023-10-08T01:13:56;99841.94;;;21.38;45.80
78488;BME280;67885;49.758;9.582;2023-10-08T01:16:24;99826.47;;;21.32;46.06
78488;BME280;67885;49.758;9.582;2023-10-08T01:18:52;99834.88;;;21.37;46.45
78488;BME280;67885;49.758;9.582;2023-10-08T01:21:20;99839.25;;;21.38;46.33
78488;BME280;67885;49.758;9.582;2023-10-08T01:24:02;99829.31;;;21.38;46.64
78488;BME280;67885;49.758;9.582;2023-10-08T01:26:31;99841.94;;;21.38;46.40
78488;BME280;67885;49.758;9.582;2023-10-08T01:28:58;99833.00;;;21.37;46.03
78488;BME280;67885;49.758;9.582;2023-10-08T01:31:28;99834.00;;;21.36;46.03
78488;BME280;67885;49.758;9.582;2023-10-08T01:33:55;99837.94;;;21.34;46.88
78488;BME280;67885;49.758;9.582;2023-10-08T01:36:23;99840.44;;;21.35;46.18
78488;BME280;67885;49.758;9.582;2023-10-08T01:38:50;99832.88;;;21.31;45.95
78488;BME280;67885;49.758;9.582;2023-10-08T01:41:18;99829.72;;;21.27;46.96
78488;BME280;67885;49.758;9.582;2023-10-08T01:43:45;99839.13;;;21.31;46.14
78488;BME280;67885;49.758;9.582;2023-10-08T01:46:12;99846.34;;;21.31;46.12
78488;BME280;67885;49.758;9.582;2023-10-08T01:48:41;99818.63;;;21.22;47.00
78488;BME280;67885;49.758;9.582;2023-10-08T01:51:10;99824.50;;;21.26;46.66
78488;BME280;67885;49.758;9.582;2023-10-08T01:53:50;99830.72;;;21.26;46.12
78488;BME280;67885;49.758;9.582;2023-10-08T01:56:16;99839.13;;;21.31;46.83
78488;BME280;67885;49.758;9.582;2023-10-08T01:58:44;99830.00;;;21.32;46.75
78488;BME280;67885;49.758;9.582;2023-10-08T02:01:12;99818.13;;;21.18;46.91
78488;BME280;67885;49.758;9.582;2023-10-08T02:03:39;99844.03;;;21.28;46.88
78488;BME280;67885;49.758;9.582;2023-10-08T02:06:07;99828.53;;;21.21;46.80
78488;BME280;67885;49.758;9.582;2023-10-08T02:08:34;99838.13;;;21.24;46.71
78488;BME280;67885;49.758;9.582;2023-10-08T02:11:01;99844.19;;;21.26;47.24
78488;BME280;67885;49.758;9.582;2023-10-08T02:13:28;99843.00;;;21.29;47.58
78488;BME280;67885;49.758;9.582;2023-10-08T02:15:57;99857.31;;;21.29;47.04
78488;BME280;67885;49.758;9.582;2023-10-08T02:18:23;99840.19;;;21.22;46.35
78488;BME280;67885;49.758;9.582;2023-10-08T02:20:50;99846.34;;;21.31;47.29
78488;BME280;67885;49.758;9.582;2023-10-08T02:23:18;99849.53;;;21.34;46.68
78488;BME280;67885;49.758;9.582;2023-10-08T02:25:44;99849.03;;;21.31;46.31
78488;BME280;67885;49.758;9.582;2023-10-08T02:28:11;99841.00;;;21.22;47.27
78488;BME280;67885;49.758;9.582;2023-10-08T02:30:40;99845.94;;;21.19;47.37
78488;BME280;67885;49.758;9.582;2023-10-08T02:33:09;99848.25;;;21.22;46.65
78488;BME280;67885;49.758;9.582;2023-10-08T02:35:41;99848.25;;;21.22;47.16
78488;BME280;67885;49.758;9.582;2023-10-08T02:38:09;99843.25;;;21.19;47.49
78488;BME280;67885;49.758;9.582;2023-10-08T02:40:37;99859.53;;;21.17;46.61
78488;BME280;67885;49.758;9.582;2023-10-08T02:43:10;99862.41;;;21.16;47.00
78488;BME280;67885;49.758;9.582;2023-10-08T02:45:37;99860.75;;;21.15;46.91
78488;BME280;67885;49.758;9.582;2023-10-08T02:48:05;99861.94;;;21.12;46.92
78488;BME280;67885;49.758;9.582;2023-10-08T02:50:39;99855.06;;;21.10;47.09
78488;BME280;67885;49.758;9.582;2023-10-08T02:53:06;99843.47;;;21.01;46.85
78488;BME280;67885;49.758;9.582;2023-10-08T02:55:36;99857.06;;;21.08;47.56
78488;BME280;67885;49.758;9.582;2023-10-08T02:58:07;99861.81;;;21.05;47.18
78488;BME280;67885;49.758;9.582;2023-10-08T03:00:37;99824.03;;;20.82;47.34
78488;BME280;67885;49.758;9.582;2023-10-08T03:03:06;99850.34;;;21.03;47.05
78488;BME280;67885;49.758;9.582;2023-10-08T03:05:44;99846.16;;;21.01;47.11
78488;BME280;67885;49.758;9.582;2023-10-08T03:08:12;99850.91;;;20.99;47.27
78488;BME280;67885;49.758;9.582;2023-10-08T03:10:39;99850.03;;;20.98;47.64
78488;BME280;67885;49.758;9.582;2023-10-08T03:13:07;99852.72;;;20.98;48.11
78488;BME280;67885;49.758;9.582;2023-10-08T03:15:35;99847.53;;;20.97;47.90
78488;BME280;67885;49.758;9.582;2023-10-08T03:18:06;99757.03;;;20.39;47.65
78488;BME280;67885;49.758;9.582;2023-10-08T03:20:40;99848.53;;;20.96;47.81
78488;BME280;67885;49.758;9.582;2023-10-08T03:23:10;99824.41;;;20.71;47.79
78488;BME280;67885;49.758;9.582;2023-10-08T03:25:51;99849.44;;;20.88;47.27
78488;BME280;67885;49.758;9.582;2023-10-08T03:28:22;99857.16;;;20.91;47.74
78488;BME280;67885;49.758;9.582;2023-10-08T03:30:51;99863.34;;;20.92;47.39
78488;BME280;67885;49.758;9.582;2023-10-08T03:33:21;99858.16;;;20.90;48.14
78488;BME280;67885;49.758;9.582;2023-10-08T03:35:52;99852.13;;;20.88;47.43
78488;BME280;67885;49.758;9.582;2023-10-08T03:38:22;99835.16;;;20.71;48.31
78488;BME280;67885;49.758;9.582;2023-10-08T03:40:54;99875.16;;;20.91;48.23
78488;BME280;67885;49.758;9.582;2023-10-08T03:43:32;99879.50;;;20.92;47.90
78488;BME280;67885;49.758;9.582;2023-10-08T03:46:12;99873.97;;;20.93;48.24
78488;BME280;67885;49.758;9.582;2023-10-08T03:48:41;99873.66;;;20.88;48.30
78488;BME280;67885;49.758;9.582;2023-10-08T03:51:10;99889.97;;;20.95;47.86
78488;BME280;67885;49.758;9.582;2023-10-08T03:53:39;99867.63;;;20.78;47.65
78488;BME280;67885;49.758;9.582;2023-10-08T03:56:24;99906.59;;;20.98;47.96
78488;BME280;67885;49.758;9.582;2023-10-08T03:58:51;99900.06;;;20.93;48.47
78488;BME280;67885;49.758;9.582;2023-10-08T04:01:20;99897.19;;;20.94;48.06
78488;BME280;67885;49.758;9.582;2023-10-08T04:03:49;99916.69;;;21.04;47.71
78488;BME280;67885;49.758;9.582;2023-10-08T04:06:25;99911.28;;;21.04;47.23
78488;BME280;67885;49.758;9.582;2023-10-08T04:09:05;99919.06;;;20.99;48.33
78488;BME280;67885;49.758;9.582;2023-10-08T04:11:46;99918.91;;;20.93;47.59
78488;BME280;67885;49.758;9.582;2023-10-08T04:14:19;99926.16;;;20.84;48.11
78488;BME280;67885;49.758;9.582;2023-10-08T04:16:47;99930.53;;;20.77;48.70
78488;BME280;67885;49.758;9.582;2023-10-08T04:19:17;99936.44;;;20.72;48.55
78488;BME280;67885;49.758;9.582;2023-10-08T04:21:44;99935.94;;;20.68;47.88
78488;BME280;67885;49.758;9.582;2023-10-08T04:24:12;99930.22;;;20.63;48.25
78488;BME280;67885;49.758;9.582;2023-10-08T04:26:40;99907.69;;;20.48;48.48
78488;BME280;67885;49.758;9.582;2023-10-08T04:29:08;99929.88;;;20.58;48.29
78488;BME280;67885;49.758;9.582;2023-10-08T04:31:35;99925.34;;;20.59;48.38
78488;BME280;67885;49.758;9.582;2023-10-08T04:34:04;99868.34;;;20.30;48.58
78488;BME280;67885;49.758;9.582;2023-10-08T04:36:41;99919.13;;;20.58;49.11
78488;BME280;67885;49.758;9.582;2023-10-08T04:39:08;99917.78;;;20.54;49.34
78488;BME280;67885;49.758;9.582;2023-10-08T04:41:43;99833.09;;;20.00;49.25
78488;BME280;67885;49.758;9.582;2023-10-08T04:44:10;99910.38;;;20.48;48.45
78488;BME280;67885;49.758;9.582;2023-10-08T04:46:41;99918.28;;;20.49;49.08
78488;BME280;67885;49.758;9.582;2023-10-08T04:49:17;99919.78;;;20.52;48.77
78488;BME280;67885;49.758;9.582;2023-10-08T04:51:54;99913.22;;;20.54;48.67
78488;BME280;67885;49.758;9.582;2023-10-08T04:54:23;99897.59;;;20.58;48.70
78488;BME280;67885;49.758;9.582;2023-10-08T04:56:51;99883.63;;;20.54;49.17
78488;BME280;67885;49.758;9.582;2023-10-08T04:59:18;99885.66;;;20.61;48.78
78488;BME280;67885;49.758;9.582;2023-10-08T05:01:48;99892.56;;;20.71;49.58
78488;BME280;67885;49.758;9.582;2023-10-08T05:04:33;99866.09;;;20.67;48.53
78488;BME280;67885;49.758;9.582;2023-10-08T05:07:11;99884.44;;;20.88;48.74
78488;BME280;67885;49.758;9.582;2023-10-08T05:09:47;99864.44;;;20.82;47.77
78488;BME280;67885;49.758;9.582;2023-10-08T05:12:38;99886.06;;;21.05;47.55
78488;BME280;67885;49.758;9.582;2023-10-08T05:15:12;99895.59;;;21.16;47.04
78488;BME280;67885;49.758;9.582;2023-10-08T05:18:03;99892.78;;;21.10;48.47
78488;BME280;67885;49.758;9.582;2023-10-08T05:20:40;99888.91;;;21.04;47.97
78488;BME280;67885;49.758;9.582;2023-10-08T05:23:11;99877.16;;;20.97;47.36
78488;BME280;67885;49.758;9.582;2023-10-08T05:25:46;99866.72;;;20.94;47.40
78488;BME280;67885;49.758;9.582;2023-10-08T05:28:25;99872.47;;;20.91;48.01
78488;BME280;67885;49.758;9.582;2023-10-08T05:30:51;99873.47;;;20.89;47.82
78488;BME280;67885;49.758;9.582;2023-10-08T05:33:21;99873.66;;;20.88;47.97
78488;BME280;67885;49.758;9.582;2023-10-08T05:36:09;99873.66;;;20.88;47.95
78488;BME280;67885;49.758;9.582;2023-10-08T05:38:44;99874.31;;;20.90;47.91
78488;BME280;67885;49.758;9.582;2023-10-08T05:41:26;99874.16;;;20.83;48.01
78488;BME280;67885;49.758;9.582;2023-10-08T05:44:06;99863.25;;;20.60;48.65
78488;BME280;67885;49.758;9.582;2023-10-08T05:46:49;99871.50;;;20.75;48.24
78488;BME280;67885;49.758;9.582;2023-10-08T05:49:49;99880.91;;;20.79;48.19
78488;BME280;67885;49.758;9.582;2023-10-08T05:52:54;99888.16;;;20.79;47.98
78488;BME280;67885;49.758;9.582;2023-10-08T05:55:40;99890.00;;;20.78;48.53
78488;BME280;67885;49.758;9.582;2023-10-08T05:58:13;99875.88;;;20.76;48.10
78488;BME280;67885;49.758;9.582;2023-10-08T06:00:51;99806.47;;;20.38;48.57
78488;BME280;67885;49.758;9.582;2023-10-08T06:03:51;99879.25;;;20.70;49.33
78488;BME280;67885;49.758;9.582;2023-10-08T06:06:25;99892.19;;;20.66;49.59
78488;BME280;67885;49.758;9.582;2023-10-08T06:09:04;99891.50;;;20.64;49.37
78488;BME280;67885;49.758;9.582;2023-10-08T06:11:35;99889.84;;;20.63;49.41
78488;BME280;67885;49.758;9.582;2023-10-08T06:14:11;99888.63;;;20.66;49.17
78488;BME280;67885;49.758;9.582;2023-10-08T06:16:43;99886.50;;;20.69;48.90
78488;BME280;67885;49.758;9.582;2023-10-08T06:19:11;99809.19;;;20.22;48.65
78488;BME280;67885;49.758;9.582;2023-10-08T06:21:40;99895.06;;;20.73;48.57
78488;BME280;67885;49.758;9.582;2023-10-08T06:24:08;99901.09;;;20.75;48.50
78488;BME280;67885;49.758;9.582;2023-10-08T06:26:36;99918.78;;;20.78;48.73
78488;BME280;67885;49.758;9.582;2023-10-08T06:29:09;99918.94;;;20.76;49.58
78488;BME280;67885;49.758;9.582;2023-10-08T06:31:53;99923.97;;;20.79;48.94
78488;BME280;67885;49.758;9.582;2023-10-08T06:34:21;99903.63;;;20.68;48.80
78488;BME280;67885;49.758;9.582;2023-10-08T06:36:53;99918.59;;;20.79;48.54
78488;BME280;67885;49.758;9.582;2023-10-08T06:39:20;99916.25;;;20.76;49.35
78488;BME280;67885;49.758;9.582;2023-10-08T06:41:52;99930.72;;;20.75;49.56
78488;BME280;67885;49.758;9.582;2023-10-08T06:44:19;99947.72;;;20.76;49.44
78488;BME280;67885;49.758;9.582;2023-10-08T06:46:46;99965.22;;;20.80;49.26
78488;BME280;67885;49.758;9.582;2023-10-08T06:49:19;99944.53;;;20.72;49.55
78488;BME280;67885;49.758;9.582;2023-10-08T06:51:50;99953.75;;;20.86;49.47
78488;BME280;67885;49.758;9.582;2023-10-08T06:54:17;99949.88;;;20.88;48.62
78488;BME280;67885;49.758;9.582;2023-10-08T06:56:44;99955.44;;;20.87;50.17
78488;BME280;67885;49.758;9.582;2023-10-08T06:59:18;99975.28;;;20.86;49.58
78488;BME280;67885;49.758;9.582;2023-10-08T07:01:44;99974.25;;;20.95;49.70
78488;BME280;67885;49.758;9.582;2023-10-08T07:04:12;99994.13;;;20.86;49.09
78488;BME280;67885;49.758;9.582;2023-10-08T07:06:42;99984.22;;;20.95;49.39
78488;BME280;67885;49.758;9.582;2023-10-08T07:09:11;100000.34;;;21.03;49.05
78488;BME280;67885;49.758;9.582;2023-10-08T07:11:49;99995.44;;;21.06;50.51
78488;BME280;67885;49.758;9.582;2023-10-08T07:14:20;100000.31;;;21.11;49.98
78488;BME280;67885;49.758;9.582;2023-10-08T07:16:48;100003.03;;;21.11;49.95
78488;BME280;67885;49.758;9.582;2023-10-08T07:19:17;100010.72;;;21.22;49.06
78488;BME280;67885;49.758;9.582;2023-10-08T07:21:46;100003.16;;;21.26;49.63
78488;BME280;67885;49.758;9.582;2023-10-08T07:24:14;100020.66;;;21.30;49.49
78488;BME280;67885;49.758;9.582;2023-10-08T07:26:42;100018.59;;;21.32;48.92
78488;BME280;67885;49.758;9.582;2023-10-08T07:29:13;100039.13;;;21.42;49.37
78488;BME280;67885;49.758;9.582;2023-10-08T07:31:43;100053.75;;;21.47;49.35
78488;BME280;67885;49.758;9.582;2023-10-08T07:34:14;100006.97;;;21.40;48.90
78488;BME280;67885;49.758;9.582;2023-10-08T07:36:54;100002.75;;;21.46;49.15
78488;BME280;67885;49.758;9.582;2023-10-08T07:39:22;100000.25;;;21.36;50.09
78488;BME280;67885;49.758;9.582;2023-10-08T07:42:00;100012.91;;;21.27;49.32
78488;BME280;67885;49.758;9.582;2023-10-08T07:44:28;99991.88;;;21.14;49.33
78488;BME280;67885;49.758;9.582;2023-10-08T07:46:55;100012.72;;;21.37;49.84
78488;BME280;67885;49.758;9.582;2023-10-08T07:49:22;100007.16;;;21.38;49.23
78488;BME280;67885;49.758;9.582;2023-10-08T07:51:52;100009.16;;;21.36;49.38
78488;BME280;67885;49.758;9.582;2023-10-08T07:54:19;100011.84;;;21.36;49.78
78488;BME280;67885;49.758;9.582;2023-10-08T07:56:48;99997.38;;;21.37;49.64
78488;BME280;67885;49.758;9.582;2023-10-08T07:59:17;100018.91;;;21.54;49.11
78488;BME280;67885;49.758;9.582;2023-10-08T08:01:44;100023.44;;;21.62;48.61
78488;BME280;67885;49.758;9.582;2023-10-08T08:04:11;100033.34;;;21.69;48.06
78488;BME280;67885;49.758;9.582;2023-10-08T08:06:47;100013.97;;;21.66;48.28
78488;BME280;67885;49.758;9.582;2023-10-08T08:09:17;100033.13;;;21.79;47.52
78488;BME280;67885;49.758;9.582;2023-10-08T08:11:46;100019.28;;;21.82;48.51
78488;BME280;67885;49.758;9.582;2023-10-08T08:14:14;100012.06;;;21.83;48.41
78488;BME280;67885;49.758;9.582;2023-10-08T08:16:43;100008.00;;;21.87;47.87
78488;BME280;67885;49.758;9.582;2023-10-08T08:19:13;99980.81;;;21.65;48.60
78488;BME280;67885;49.758;9.582;2023-10-08T08:21:41;100004.38;;;21.95;48.06
78488;BME280;67885;49.758;9.582;2023-10-08T08:24:11;100002.00;;;22.00;48.82
78488;BME280;67885;49.758;9.582;2023-10-08T08:26:39;99997.75;;;22.05;48.56
78488;BME280;67885;49.758;9.582;2023-10-08T08:29:26;99988.28;;;22.10;48.60
78488;BME280;67885;49.758;9.582;2023-10-08T08:31:54;99993.16;;;22.14;47.66
78488;BME280;67885;49.758;9.582;2023-10-08T08:34:22;99987.59;;;22.16;47.56
78488;BME280;67885;49.758;9.582;2023-10-08T08:36:49;99953.81;;;21.97;47.55
78488;BME280;67885;49.758;9.582;2023-10-08T08:39:16;99992.16;;;22.15;47.46
78488;BME280;67885;49.758;9.582;2023-10-08T08:41:59;100012.03;;;22.14;46.84
78488;BME280;67885;49.758;9.582;2023-10-08T08:44:28;100006.16;;;22.11;47.82
78488;BME280;67885;49.758;9.582;2023-10-08T08:46:58;99997.75;;;22.05;47.19
78488;BME280;67885;49.758;9.582;2023-10-08T08:49:32;100008.91;;;22.02;48.21
78488;BME280;67885;49.758;9.582;2023-10-08T08:52:00;100002.75;;;21.94;47.28
78488;BME280;67885;49.758;9.582;2023-10-08T08:54:27;100004.88;;;21.98;47.61
78488;BME280;67885;49.758;9.582;2023-10-08T08:56:59;100011.66;;;21.94;47.39
78488;BME280;67885;49.758;9.582;2023-10-08T08:59:30;100003.75;;;21.93;48.63
78488;BME280;67885;49.758;9.582;2023-10-08T09:01:57;99922.94;;;21.36;48.11
78488;BME280;67885;49.758;9.582;2023-10-08T09:04:29;100024.97;;;21.96;47.45
78488;BME280;67885;49.758;9.582;2023-10-08T09:06:58;100048.88;;;21.99;48.01
78488;BME280;67885;49.758;9.582;2023-10-08T09:09:32;100034.00;;;22.03;47.34
78488;BME280;67885;49.758;9.582;2023-10-08T09:12:01;100038.06;;;22.07;48.00
78488;BME280;67885;49.758;9.582;2023-10-08T09:14:31;100027.38;;;22.14;48.13
78488;BME280;67885;49.758;9.582;2023-10-08T09:17:00;100031.75;;;22.15;47.37
78488;BME280;67885;49.758;9.582;2023-10-08T09:19:29;100048.06;;;22.21;46.88
78488;BME280;67885;49.758;9.582;2023-10-08T09:22:01;100054.97;;;22.24;47.19
78488;BME280;67885;49.758;9.582;2023-10-08T09:24:30;100065.22;;;22.29;47.96
78488;BME280;67885;49.758;9.582;2023-10-08T09:26:57;100071.81;;;22.34;47.42
78488;BME280;67885;49.758;9.582;2023-10-08T09:29:25;100038.78;;;22.24;47.66
78488;BME280;67885;49.758;9.582;2023-10-08T09:31:53;100078.69;;;22.45;47.40
78488;BME280;67885;49.758;9.582;2023-10-08T09:34:26;100074.09;;;22.46;47.63
78488;BME280;67885;49.758;9.582;2023-10-08T09:36:55;100069.78;;;22.36;47.52
78488;BME280;67885;49.758;9.582;2023-10-08T09:39:24;100098.28;;;22.62;46.66
78488;BME280;67885;49.758;9.582;2023-10-08T09:41:54;100088.47;;;22.69;46.87
78488;BME280;67885;49.758;9.582;2023-10-08T09:44:22;100084.53;;;22.72;46.74
78488;BME280;67885;49.758;9.582;2023-10-08T09:46:55;100008.22;;;22.32;45.98
78488;BME280;67885;49.758;9.582;2023-10-08T09:49:33;100082.81;;;22.79;44.46
78488;BME280;67885;49.758;9.582;2023-10-08T09:52:07;100099.78;;;22.88;45.71
78488;BME280;67885;49.758;9.582;2023-10-08T09:54:41;100072.47;;;22.83;45.46
78488;BME280;67885;49.758;9.582;2023-10-08T09:57:10;100084.88;;;22.92;45.56
78488;BME280;67885;49.758;9.582;2023-10-08T09:59:37;100076.31;;;22.88;45.66
78488;BME280;67885;49.758;9.582;2023-10-08T10:02:07;100074.28;;;22.90;45.90
78488;BME280;67885;49.758;9.582;2023-10-08T10:04:42;100069.69;;;22.91;45.40
78488;BME280;67885;49.758;9.582;2023-10-08T10:07:11;100074.69;;;23.02;44.93
78488;BME280;67885;49.758;9.582;2023-10-08T10:09:38;100076.38;;;23.03;45.73
78488;BME280;67885;49.758;9.582;2023-10-08T10:12:06;100077.84;;;23.06;45.43
78488;BME280;67885;49.758;9.582;2023-10-08T10:14:41;100070.09;;;23.03;45.48
78488;BME280;67885;49.758;9.582;2023-10-08T10:17:13;100038.31;;;22.90;45.33
78488;BME280;67885;49.758;9.582;2023-10-08T10:19:42;100069.38;;;23.09;45.19
78488;BME280;67885;49.758;9.582;2023-10-08T10:22:14;100069.38;;;23.09;44.94
78488;BME280;67885;49.758;9.582;2023-10-08T10:24:42;100067.31;;;23.11;45.27
78488;BME280;67885;49.758;9.582;2023-10-08T10:27:12;100067.31;;;23.11;45.43
78488;BME280;67885;49.758;9.582;2023-10-08T10:29:41;100056.69;;;23.10;45.33
78488;BME280;67885;49.758;9.582;2023-10-08T10:32:12;100030.41;;;22.88;45.38
78488;BME280;67885;49.758;9.582;2023-10-08T10:34:41;100077.50;;;23.09;44.73
78488;BME280;67885;49.758;9.582;2023-10-08T10:37:08;100088.31;;;23.09;45.41
78488;BME280;67885;49.758;9.582;2023-10-08T10:39:50;100109.91;;;23.09;46.15
78488;BME280;67885;49.758;9.582;2023-10-08T10:42:18;100068.19;;;23.12;45.35
78488;BME280;67885;49.758;9.582;2023-10-08T10:44:48;100065.13;;;23.15;45.34
78488;BME280;67885;49.758;9.582;2023-10-08T10:47:17;100071.19;;;23.17;45.45
78488;BME280;67885;49.758;9.582;2023-10-08T10:49:53;100077.63;;;23.16;45.16
78488;BME280;67885;49.758;9.582;2023-10-08T10:52:36;100091.34;;;23.14;45.75
78488;BME280;67885;49.758;9.582;2023-10-08T10:55:11;100090.00;;;23.10;45.69
78488;BME280;67885;49.758;9.582;2023-10-08T10:57:57;100083.16;;;23.22;45.75
78488;BME280;67885;49.758;9.582;2023-10-08T11:00:31;100071.78;;;23.27;45.70
78488;BME280;67885;49.758;9.582;2023-10-08T11:03:15;100054.50;;;23.13;45.68
78488;BME280;67885;49.758;9.582;2023-10-08T11:05:52;100091.28;;;23.37;45.51
78488;BME280;67885;49.758;9.582;2023-10-08T11:08:21;100089.88;;;23.42;45.58
78488;BME280;67885;49.758;9.582;2023-10-08T11:10:51;100101.63;;;23.49;45.37
78488;BME280;67885;49.758;9.582;2023-10-08T11:13:24;100092.13;;;23.53;44.81
78488;BME280;67885;49.758;9.582;2023-10-08T11:15:54;100087.00;;;23.58;45.24
78488;BME280;67885;49.758;9.582;2023-10-08T11:18:26;100092.03;;;23.61;44.85
78488;BME280;67885;49.758;9.582;2023-10-08T11:21:05;100108.53;;;23.66;44.83
78488;BME280;67885;49.758;9.582;2023-10-08T11:23:42;100112.44;;;23.64;44.82
78488;BME280;67885;49.758;9.582;2023-10-08T11:26:12;100109.44;;;23.58;45.69
78488;BME280;67885;49.758;9.582;2023-10-08T11:28:42;100119.63;;;23.71;45.32
78488;BME280;67885;49.758;9.582;2023-10-08T11:31:11;100127.66;;;23.80;45.15
78488;BME280;67885;49.758;9.582;2023-10-08T11:33:41;100113.94;;;23.81;45.19
78488;BME280;67885;49.758;9.582;2023-10-08T11:36:17;100124.31;;;23.93;44.88
78488;BME280;67885;49.758;9.582;2023-10-08T11:38:45;100116.19;;;23.93;44.53
78488;BME280;67885;49.758;9.582;2023-10-08T11:41:17;100123.66;;;24.05;44.81
78488;BME280;67885;49.758;9.582;2023-10-08T11:43:54;100119.34;;;24.11;44.36
78488;BME280;67885;49.758;9.582;2023-10-08T11:46:24;100072.78;;;23.86;45.15
78488;BME280;67885;49.758;9.582;2023-10-08T11:48:59;100102.09;;;24.12;44.56
78488;BME280;67885;49.758;9.582;2023-10-08T11:51:31;100112.13;;;24.33;44.26
78488;BME280;67885;49.758;9.582;2023-10-08T11:53:58;100071.63;;;24.25;44.67
78488;BME280;67885;49.758;9.582;2023-10-08T11:56:26;100092.09;;;24.49;44.00
78488;BME280;67885;49.758;9.582;2023-10-08T11:58:53;100090.28;;;24.56;44.37
78488;BME280;67885;49.758;9.582;2023-10-08T12:01:22;100076.94;;;24.55;43.82
78488;BME280;67885;49.758;9.582;2023-10-08T12:03:50;100089.56;;;24.63;44.10
78488;BME280;67885;49.758;9.582;2023-10-08T12:06:18;100070.59;;;24.63;43.65
78488;BME280;67885;49.758;9.582;2023-10-08T12:08:46;100054.41;;;24.69;44.69
78488;BME280;67885;49.758;9.582;2023-10-08T12:11:14;100057.38;;;24.74;43.78
78488;BME280;67885;49.758;9.582;2023-10-08T12:13:41;100068.91;;;24.83;43.74
78488;BME280;67885;49.758;9.582;2023-10-08T12:16:14;100065.78;;;24.86;43.34
78488;BME280;67885;49.758;9.582;2023-10-08T12:18:47;100064.56;;;24.89;43.00
78488;BME280;67885;49.758;9.582;2023-10-08T12:21:22;100056.56;;;24.81;43.42
78488;BME280;67885;49.758;9.582;2023-10-08T12:23:50;100078.56;;;24.92;43.68
78488;BME280;67885;49.758;9.582;2023-10-08T12:26:18;100063.75;;;24.88;43.34
78488;BME280;67885;49.758;9.582;2023-10-08T12:28:45;100061.09;;;24.95;43.81
78488;BME280;67885;49.758;9.582;2023-10-08T12:31:14;100057.97;;;24.98;42.67
78488;BME280;67885;49.758;9.582;2023-10-08T12:33:42;100051.75;;;24.76;43.35
78488;BME280;67885;49.758;9.582;2023-10-08T12:36:11;100069.41;;;24.94;43.19
78488;BME280;67885;49.758;9.582;2023-10-08T12:38:40;100071.28;;;24.93;43.71
78488;BME280;67885;49.758;9.582;2023-10-08T12:41:08;100062.41;;;24.78;43.31
78488;BME280;67885;49.758;9.582;2023-10-08T12:43:38;100067.72;;;24.92;43.73
78488;BME280;67885;49.758;9.582;2023-10-08T12:46:08;100062.06;;;24.87;43.80
78488;BME280;67885;49.758;9.582;2023-10-08T12:48:41;100068.38;;;24.95;43.69
78488;BME280;67885;49.758;9.582;2023-10-08T12:51:09;100075.25;;;24.97;43.12
78488;BME280;67885;49.758;9.582;2023-10-08T12:53:37;100075.91;;;24.99;43.97
78488;BME280;67885;49.758;9.582;2023-10-08T12:56:06;100076.53;;;25.01;43.51
78488;BME280;67885;49.758;9.582;2023-10-08T12:58:41;100105.34;;;25.02;43.20
78488;BME280;67885;49.758;9.582;2023-10-08T13:01:10;100064.75;;;24.87;42.90
78488;BME280;67885;49.758;9.582;2023-10-08T13:03:39;100074.94;;;25.07;43.79
78488;BME280;67885;49.758;9.582;2023-10-08T13:06:08;100059.25;;;25.02;42.94
78488;BME280;67885;49.758;9.582;2023-10-08T13:08:40;100065.75;;;25.08;42.99
78488;BME280;67885;49.758;9.582;2023-10-08T13:11:08;100077.00;;;25.05;42.98
78488;BME280;67885;49.758;9.582;2023-10-08T13:13:36;100077.00;;;25.05;43.62
78488;BME280;67885;49.758;9.582;2023-10-08T13:16:03;100069.28;;;25.02;43.75
78488;BME280;67885;49.758;9.582;2023-10-08T13:18:33;100078.75;;;25.13;43.38